FASY weather

Syferfontein Airport
Hiltonia, Gauteng, South Africa

Public forecast

Using degrees Celsius for public forecast. Weather courtesy of forecast.io.

Closest aviation weather report (METAR) to Syferfontein Airport

Closest report is Vereeniging Airport, 16.3 nm (30.2 km) SE. Retrieved 2020/05/29 07:00 UTC (3 minutes ago):

FAVV 290700Z AUTO /////KT //// // ////// 10/M02 Q1028

Closest aviation forecast (TAF) to Syferfontein Airport

Closest forecast is Lanseria Airport, 25.9 nm (48.0 km) NNE. Retrieved 2020/05/29 06:12 UTC (51 minutes ago):

TAF TAF FALA 290400Z 2906/3006 VRB03KT CAVOK TX21/2912Z TN05/3004Z BECMG 2908/2910 21008KT BECMG 3001/3003 VRB03KT